Time;durP1;ratioP1;P1;durP2;ratioP2;P2;SDS_P1;SDS_P2;PMS_P1;PMS_P2;Temp;Humidity;BMP_temperature;BMP_pressure;BME280_temperature;BME280_humidity;BME280_pressure;Samples;Min_cycle;Max_cycle;Signal;HPM_P1;HPM_P2
2024/01/09 00:02:39;;;;;;;0.20;0.20;;;;;;;-8.21;100.00;97636.56;6135511;23;20021;-76
2024/01/09 00:05:25;;;;;;;0.22;0.22;;;;;;;-8.11;100.00;97635.00;6139768;23;20021;-75
2024/01/09 00:08:11;;;;;;;0.20;0.20;;;;;;;-8.08;100.00;97642.59;6137101;23;20036;-77
2024/01/09 00:11:00;;;;;;;0.20;0.20;;;;;;;-8.17;100.00;97636.28;6136172;23;20491;-76
2024/01/09 00:13:46;;;;;;;0.20;0.20;;;;;;;-8.18;100.00;97641.53;6137322;23;20357;-76
2024/01/09 00:16:32;;;;;;;0.20;0.20;;;;;;;-8.24;100.00;97657.56;6138551;23;20025;-76
2024/01/09 00:19:17;;;;;;;0.20;0.20;;;;;;;-8.22;100.00;97653.94;6137743;23;20021;-76
2024/01/09 00:22:03;;;;;;;0.20;0.20;;;;;;;-8.21;100.00;97655.59;6136779;23;20036;-76
2024/01/09 00:24:49;;;;;;;0.20;0.20;;;;;;;-8.29;100.00;97647.47;6137125;23;20032;-77
2024/01/09 00:27:35;;;;;;;0.20;0.20;;;;;;;-8.33;100.00;97637.38;6137919;23;20037;-77
2024/01/09 00:30:21;;;;;;;0.20;0.20;;;;;;;-8.29;100.00;97655.25;6136969;23;20029;-77
2024/01/09 00:33:07;;;;;;;0.20;0.20;;;;;;;-8.43;100.00;97642.41;6137705;23;20014;-77
2024/01/09 00:35:53;;;;;;;0.20;0.20;;;;;;;-8.36;100.00;97645.41;6137269;23;20018;-76
2024/01/09 00:38:39;;;;;;;0.20;0.20;;;;;;;-8.32;100.00;97644.25;6137295;23;20025;-76
2024/01/09 00:41:24;;;;;;;0.20;0.20;;;;;;;-8.35;100.00;97624.53;6137424;23;20100;-77
2024/01/09 00:44:10;;;;;;;0.20;0.20;;;;;;;-8.27;100.00;97644.78;6137061;23;20029;-76
2024/01/09 00:46:56;;;;;;;0.20;0.20;;;;;;;-8.32;100.00;97629.50;6138279;23;20037;-77
2024/01/09 00:49:45;;;;;;;0.20;0.20;;;;;;;-8.25;100.00;97641.16;6138602;23;20030;-77
2024/01/09 00:52:31;;;;;;;0.20;0.20;;;;;;;-8.31;100.00;97641.56;6137723;23;20118;-77
2024/01/09 00:55:17;;;;;;;0.20;0.20;;;;;;;-8.35;100.00;97634.94;6137378;23;20022;-78
2024/01/09 00:58:03;;;;;;;0.20;0.20;;;;;;;-8.34;100.00;97633.97;6135872;23;20270;-77
2024/01/09 01:00:49;;;;;;;0.20;0.20;;;;;;;-8.34;100.00;97636.56;6134666;23;20088;-78
2024/01/09 01:03:34;;;;;;;0.28;0.28;;;;;;;-8.36;100.00;97642.81;6137064;23;20072;-77
2024/01/09 01:06:20;;;;;;;0.20;0.20;;;;;;;-8.39;100.00;97640.44;6137204;23;20025;-77
2024/01/09 01:09:06;;;;;;;0.20;0.20;;;;;;;-8.36;100.00;97643.66;6136495;23;20029;-76
2024/01/09 01:11:52;;;;;;;0.20;0.20;;;;;;;-8.38;100.00;97645.53;6136886;23;20026;-77
2024/01/09 01:14:38;;;;;;;0.20;0.20;;;;;;;-8.45;100.00;97644.28;6137945;23;20060;-76
2024/01/09 01:17:24;;;;;;;0.20;0.20;;;;;;;-8.55;100.00;97648.41;6138093;23;20018;-78
2024/01/09 01:20:10;;;;;;;0.20;0.20;;;;;;;-8.55;100.00;97654.44;6137532;23;20021;-77
2024/01/09 01:22:56;;;;;;;0.30;0.30;;;;;;;-8.54;100.00;97650.06;6138362;23;20159;-77
2024/01/09 01:25:42;;;;;;;0.20;0.20;;;;;;;-8.63;100.00;97648.91;6140091;23;20053;-77
2024/01/09 01:28:28;;;;;;;0.20;0.20;;;;;;;-8.60;100.00;97650.47;6139973;23;20029;-77
2024/01/09 01:31:14;;;;;;;0.20;0.20;;;;;;;-8.58;100.00;97654.63;6122282;23;20756;-76
2024/01/09 01:33:59;;;;;;;0.20;0.20;;;;;;;-8.61;100.00;97643.63;6110689;23;20026;-77
2024/01/09 01:36:45;;;;;;;0.20;0.20;;;;;;;-8.51;100.00;97644.66;6110914;23;20105;-78
2024/01/09 01:39:31;;;;;;;0.20;0.20;;;;;;;-8.50;100.00;97643.72;6109978;23;20450;-77
2024/01/09 01:42:17;;;;;;;0.22;0.22;;;;;;;-8.53;100.00;97649.13;6109827;23;20057;-76
2024/01/09 01:45:18;;;;;;;0.20;0.20;;;;;;;-8.49;100.00;97653.19;6109290;23;20104;-77
2024/01/09 01:48:05;;;;;;;0.30;0.30;;;;;;;-8.56;100.00;97645.00;6108245;23;20085;-77
2024/01/09 01:50:50;;;;;;;0.20;0.20;;;;;;;-8.45;100.00;97639.06;6110246;23;20366;-77
2024/01/09 01:53:36;;;;;;;0.20;0.20;;;;;;;-8.45;100.00;97639.91;6109937;23;20022;-77
2024/01/09 01:56:22;;;;;;;0.20;0.20;;;;;;;-8.48;100.00;97629.75;6129848;23;20048;-77
2024/01/09 01:59:10;;;;;;;0.30;0.30;;;;;;;-8.47;100.00;97646.16;6110122;23;20496;-76
2024/01/09 02:01:56;;;;;;;0.20;0.20;;;;;;;-8.52;100.00;97648.19;6108543;23;20458;-76
2024/01/09 02:04:43;;;;;;;0.10;0.10;;;;;;;-8.47;100.00;97659.97;6109448;23;20726;-78
2024/01/09 02:07:33;;;;;;;0.25;0.25;;;;;;;-8.49;100.00;97642.78;6110588;23;20717;-77
2024/01/09 02:10:23;;;;;;;0.20;0.20;;;;;;;-8.49;100.00;97648.00;6110574;23;20449;-76
2024/01/09 02:13:09;;;;;;;0.20;0.20;;;;;;;-8.64;100.00;97644.63;6107663;23;20762;-77
2024/01/09 02:15:54;;;;;;;0.20;0.20;;;;;;;-8.62;100.00;97634.19;6110869;23;20404;-77
2024/01/09 02:18:40;;;;;;;0.20;0.20;;;;;;;-8.60;100.00;97647.88;6108864;23;20022;-76
2024/01/09 02:21:26;;;;;;;0.20;0.20;;;;;;;-8.61;100.00;97634.06;6109938;23;20105;-77
2024/01/09 02:24:12;;;;;;;0.30;0.30;;;;;;;-8.56;100.00;97636.34;6108115;23;20026;-76
2024/01/09 02:27:36;;;;;;;0.22;0.22;;;;;;;-8.57;100.00;97651.09;6108421;23;20814;-76
2024/01/09 02:30:23;;;;;;;0.20;0.20;;;;;;;-8.58;100.00;97638.22;6097131;23;20080;-77
2024/01/09 02:33:09;;;;;;;0.20;0.20;;;;;;;-8.58;100.00;97627.84;6108149;23;20615;-77
2024/01/09 02:35:54;;;;;;;0.20;0.20;;;;;;;-8.58;100.00;97631.25;6109140;23;20658;-78
2024/01/09 02:38:40;;;;;;;0.30;0.30;;;;;;;-8.57;100.00;97630.31;6109361;23;20026;-78
2024/01/09 02:41:26;;;;;;;0.10;0.10;;;;;;;-8.61;100.00;97635.84;6109742;23;20041;-77
2024/01/09 02:44:12;;;;;;;0.20;0.20;;;;;;;-8.63;100.00;97635.94;6109583;23;20022;-77
2024/01/09 02:46:58;;;;;;;0.20;0.20;;;;;;;-8.66;100.00;97643.09;6109506;23;20791;-76
2024/01/09 02:49:43;;;;;;;0.10;0.10;;;;;;;-8.64;100.00;97636.03;6109600;23;20057;-77
2024/01/09 02:52:29;;;;;;;0.20;0.20;;;;;;;-8.69;100.00;97645.91;6110846;23;20042;-76
2024/01/09 02:55:15;;;;;;;0.17;0.17;;;;;;;-8.64;100.00;97639.44;6109694;23;20026;-77
2024/01/09 02:58:01;;;;;;;0.20;0.20;;;;;;;-8.65;100.00;97647.34;6108630;23;20022;-78
2024/01/09 03:00:47;;;;;;;0.20;0.20;;;;;;;-8.69;100.00;97622.53;6108614;23;20014;-78
2024/01/09 03:03:33;;;;;;;0.20;0.20;;;;;;;-8.67;100.00;97625.84;6109407;23;20025;-77
2024/01/09 03:06:19;;;;;;;0.20;0.20;;;;;;;-8.62;100.00;97621.19;6109425;23;20033;-77
2024/01/09 03:09:04;;;;;;;0.20;0.20;;;;;;;-8.62;100.00;97622.03;6129178;23;20022;-77
2024/01/09 03:11:51;;;;;;;0.20;0.20;;;;;;;-8.60;100.00;97619.31;6109489;23;20029;-77
2024/01/09 03:14:37;;;;;;;0.20;0.20;;;;;;;-8.60;100.00;97616.72;6109134;23;20395;-77
2024/01/09 03:17:23;;;;;;;0.30;0.30;;;;;;;-8.58;100.00;97605.31;6108840;23;20026;-78
2024/01/09 03:20:09;;;;;;;0.20;0.20;;;;;;;-8.59;100.00;97627.00;6109855;23;20109;-78
2024/01/09 03:22:55;;;;;;;0.20;0.20;;;;;;;-8.61;100.00;97613.31;6109664;23;20453;-78
2024/01/09 03:25:41;;;;;;;0.20;0.20;;;;;;;-8.56;100.00;97625.97;6111535;23;20022;-78
2024/01/09 03:28:28;;;;;;;0.20;0.20;;;;;;;-8.68;100.00;97606.84;6110147;23;20524;-77
2024/01/09 03:31:20;;;;;;;0.20;0.20;;;;;;;-8.60;100.00;97619.31;6108974;23;20037;-77
2024/01/09 03:34:06;;;;;;;0.20;0.20;;;;;;;-8.66;100.00;97614.53;6108946;23;20029;-78
2024/01/09 03:36:52;;;;;;;0.20;0.20;;;;;;;-8.64;100.00;97623.88;6107672;23;20026;-78
2024/01/09 03:39:38;;;;;;;0.20;0.20;;;;;;;-8.68;100.00;97608.63;6107049;23;20053;-78
2024/01/09 03:42:23;;;;;;;0.20;0.20;;;;;;;-8.64;100.00;97613.50;6109031;23;20495;-78
2024/01/09 03:45:09;;;;;;;0.20;0.20;;;;;;;-8.62;100.00;97618.59;6108431;23;20033;-78
2024/01/09 03:47:55;;;;;;;0.20;0.20;;;;;;;-8.76;100.00;97609.97;6107573;23;20040;-79
2024/01/09 03:50:41;;;;;;;0.20;0.20;;;;;;;-8.64;100.00;97617.84;6108411;23;20056;-78
2024/01/09 03:53:27;;;;;;;0.20;0.20;;;;;;;-8.71;100.00;97626.06;6108249;23;20026;-78
2024/01/09 03:56:13;;;;;;;0.20;0.20;;;;;;;-8.79;100.00;97607.56;6108205;23;20069;-79
2024/01/09 03:58:58;;;;;;;0.20;0.20;;;;;;;-8.73;100.00;97616.69;6106544;23;20097;-79
2024/01/09 04:01:44;;;;;;;0.20;0.20;;;;;;;-8.71;100.00;97633.03;6107910;23;20105;-78
2024/01/09 04:04:30;;;;;;;0.20;0.20;;;;;;;-8.74;100.00;97626.25;6108544;23;20611;-78
2024/01/09 04:07:16;;;;;;;0.20;0.20;;;;;;;-8.73;100.00;97632.25;6109054;23;20432;-78
2024/01/09 04:10:03;;;;;;;0.30;0.30;;;;;;;-8.80;100.00;97628.41;6106896;23;20871;-79
2024/01/09 04:12:49;;;;;;;0.20;0.20;;;;;;;-8.83;100.00;97629.44;6107289;23;20037;-78
2024/01/09 04:15:38;;;;;;;0.20;0.20;;;;;;;-8.87;100.00;97633.19;6108634;23;20032;-78
2024/01/09 04:18:24;;;;;;;0.20;0.20;;;;;;;-8.91;100.00;97613.56;6107287;23;20439;-78
2024/01/09 04:21:10;;;;;;;0.30;0.30;;;;;;;-8.89;100.00;97622.06;6108395;23;20568;-78
2024/01/09 04:23:56;;;;;;;0.20;0.20;;;;;;;-8.87;100.00;97622.81;6107643;23;20028;-78
2024/01/09 04:26:41;;;;;;;0.20;0.20;;;;;;;-8.86;100.00;97623.66;6107164;23;20030;-77
2024/01/09 04:29:28;;;;;;;0.22;0.22;;;;;;;-8.90;100.00;97615.22;6129388;23;20029;-77
2024/01/09 04:32:13;;;;;;;0.20;0.20;;;;;;;-8.88;100.00;97612.50;6152974;23;20516;-77
2024/01/09 04:34:59;;;;;;;0.20;0.20;;;;;;;-8.90;100.00;97617.81;6138192;23;20026;-77
2024/01/09 04:37:45;;;;;;;0.30;0.30;;;;;;;-8.96;100.00;97612.19;6136636;23;20052;-78
2024/01/09 04:40:31;;;;;;;0.20;0.20;;;;;;;-8.91;100.00;97610.13;6136773;23;20022;-78
2024/01/09 04:43:17;;;;;;;0.20;0.20;;;;;;;-8.92;100.00;97609.28;6136509;23;20222;-77
2024/01/09 04:46:03;;;;;;;0.20;0.20;;;;;;;-8.88;100.00;97605.56;6136658;23;20528;-77
2024/01/09 04:48:49;;;;;;;0.20;0.20;;;;;;;-8.90;100.00;97591.88;6136224;23;20143;-77
2024/01/09 04:51:35;;;;;;;0.20;0.20;;;;;;;-8.80;100.00;97595.50;6138256;23;20021;-76
2024/01/09 04:54:20;;;;;;;0.20;0.20;;;;;;;-8.72;100.00;97595.81;6138633;23;20809;-76
2024/01/09 04:57:06;;;;;;;0.20;0.20;;;;;;;-8.67;100.00;97592.13;6138486;23;20030;-77
2024/01/09 04:59:52;;;;;;;0.20;0.20;;;;;;;-8.60;100.00;97601.16;6138313;23;20762;-76
2024/01/09 05:02:38;;;;;;;0.20;0.20;;;;;;;-8.65;100.00;97600.63;6139758;23;20025;-76
2024/01/09 05:05:24;;;;;;;0.20;0.20;;;;;;;-8.66;100.00;97588.56;6139881;23;20021;-77
2024/01/09 05:08:09;;;;;;;0.20;0.20;;;;;;;-8.64;100.00;97591.91;6137919;23;20021;-77
2024/01/09 05:10:55;;;;;;;0.25;0.25;;;;;;;-8.62;100.00;97592.66;6140390;23;20025;-77
2024/01/09 05:13:41;;;;;;;0.20;0.20;;;;;;;-8.59;100.00;97602.81;6139707;23;20028;-78
2024/01/09 05:16:27;;;;;;;0.20;0.20;;;;;;;-8.56;100.00;97597.41;6141287;23;20106;-77
2024/01/09 05:19:13;;;;;;;0.20;0.20;;;;;;;-8.54;100.00;97593.78;6139375;23;20127;-77
2024/01/09 05:21:59;;;;;;;0.20;0.20;;;;;;;-8.55;100.00;97588.72;6140701;23;20889;-77
2024/01/09 05:24:45;;;;;;;0.20;0.20;;;;;;;-8.58;100.00;97594.09;6134987;23;20021;-77
2024/01/09 05:27:30;;;;;;;0.30;0.30;;;;;;;-8.57;100.00;97595.75;6140766;23;20481;-78
2024/01/09 05:30:16;;;;;;;0.20;0.20;;;;;;;-8.63;100.00;97597.00;6140144;23;20132;-78
2024/01/09 05:33:02;;;;;;;0.20;0.20;;;;;;;-8.64;100.00;97597.91;6140642;23;20080;-78
2024/01/09 05:35:48;;;;;;;0.20;0.20;;;;;;;-8.54;100.00;97603.34;6140069;23;20104;-78
2024/01/09 05:38:34;;;;;;;0.20;0.20;;;;;;;-8.58;100.00;97591.50;6140721;23;20064;-79
2024/01/09 05:41:23;;;;;;;0.20;0.20;;;;;;;-8.53;100.00;97599.81;6140840;23;20021;-79
2024/01/09 05:44:09;;;;;;;0.20;0.20;;;;;;;-8.56;100.00;97590.47;6140353;23;20028;-79
2024/01/09 05:46:55;;;;;;;0.20;0.20;;;;;;;-8.49;100.00;97585.69;6138627;23;20028;-79
2024/01/09 05:49:40;;;;;;;0.20;0.20;;;;;;;-8.40;100.00;97595.47;6140679;23;20025;-79
2024/01/09 05:52:27;;;;;;;0.20;0.20;;;;;;;-8.41;100.00;97588.59;6140073;23;20029;-77
2024/01/09 05:55:12;;;;;;;0.20;0.20;;;;;;;-8.40;100.00;97585.09;6140317;23;20108;-77
2024/01/09 05:57:58;;;;;;;0.28;0.28;;;;;;;-8.46;100.00;97580.31;6140783;23;20018;-77
2024/01/09 06:00:46;;;;;;;0.22;0.22;;;;;;;-8.45;100.00;97587.16;6141203;23;20060;-76
2024/01/09 06:03:32;;;;;;;0.20;0.20;;;;;;;-8.44;100.00;97592.25;6140031;23;20025;-77
2024/01/09 06:06:18;;;;;;;0.20;0.20;;;;;;;-8.40;100.00;97582.50;6139613;23;20626;-76
2024/01/09 06:09:04;;;;;;;0.20;0.20;;;;;;;-8.38;100.00;97585.81;6139492;23;20056;-76
2024/01/09 06:11:50;;;;;;;0.20;0.20;;;;;;;-8.39;100.00;97578.13;6140609;23;20033;-76
2024/01/09 06:14:35;;;;;;;0.20;0.20;;;;;;;-8.30;100.00;97590.44;6140571;23;20038;-76
2024/01/09 06:17:23;;;;;;;0.20;0.20;;;;;;;-8.28;100.00;97594.59;6140322;23;20021;-76
2024/01/09 06:20:09;;;;;;;0.20;0.20;;;;;;;-8.29;100.00;97587.75;6140771;23;20104;-76
2024/01/09 06:22:55;;;;;;;0.20;0.20;;;;;;;-8.27;100.00;97595.44;6140925;23;20356;-75
2024/01/09 06:25:41;;;;;;;0.20;0.20;;;;;;;-8.25;100.00;97594.41;6140909;23;20075;-76
2024/01/09 06:28:27;;;;;;;0.20;0.20;;;;;;;-8.27;99.15;97596.25;6140647;23;20022;-77
2024/01/09 06:31:16;;;;;;;0.20;0.20;;;;;;;-8.23;100.00;97597.72;6139865;23;20036;-78
2024/01/09 06:34:02;;;;;;;0.20;0.20;;;;;;;-8.28;100.00;97596.38;6138665;23;20516;-77
2024/01/09 06:36:49;;;;;;;0.20;0.20;;;;;;;-8.31;100.00;97594.81;6140002;23;20268;-76
2024/01/09 06:39:36;;;;;;;0.20;0.20;;;;;;;-8.32;100.00;97598.34;6140831;23;20026;-77
2024/01/09 06:42:22;;;;;;;0.30;0.30;;;;;;;-8.37;100.00;97591.81;6139885;23;20029;-77
2024/01/09 06:45:08;;;;;;;0.20;0.20;;;;;;;-8.49;100.00;97590.88;6139833;23;20056;-77
2024/01/09 06:47:54;;;;;;;0.20;0.20;;;;;;;-8.45;100.00;97581.97;6139489;23;20025;-76
2024/01/09 06:50:40;;;;;;;0.20;0.20;;;;;;;-8.44;100.00;97591.41;6140229;23;20037;-76
2024/01/09 06:53:26;;;;;;;0.20;0.20;;;;;;;-8.50;100.00;97591.81;6139956;23;20032;-76
2024/01/09 06:56:12;;;;;;;0.20;0.20;;;;;;;-8.52;100.00;97599.72;6140301;23;20537;-77
2024/01/09 06:58:58;;;;;;;0.20;0.20;;;;;;;-8.53;100.00;97595.44;6140021;23;20071;-77
2024/01/09 07:01:46;;;;;;;0.20;0.20;;;;;;;-8.57;100.00;97587.97;6139548;23;20097;-75
2024/01/09 07:04:34;;;;;;;0.20;0.20;;;;;;;-8.52;100.00;97588.50;6140849;23;20033;-76
2024/01/09 07:07:20;;;;;;;0.20;0.20;;;;;;;-8.54;100.00;97595.56;6139435;23;20052;-77
2024/01/09 07:10:06;;;;;;;0.20;0.20;;;;;;;-8.53;100.00;97608.44;6139800;23;20104;-78
2024/01/09 07:12:52;;;;;;;0.20;0.20;;;;;;;-8.49;100.00;97596.91;6138845;23;20357;-76
2024/01/09 07:15:38;;;;;;;0.20;0.20;;;;;;;-8.47;100.00;97605.44;6139375;23;20028;-76
2024/01/09 07:18:24;;;;;;;0.20;0.20;;;;;;;-8.47;100.00;97607.19;6139417;23;20049;-76
2024/01/09 07:21:10;;;;;;;0.20;0.20;;;;;;;-8.41;100.00;97614.56;6140075;23;20079;-76
2024/01/09 07:23:56;;;;;;;0.20;0.20;;;;;;;-8.38;100.00;97603.16;6139399;23;20026;-76
2024/01/09 07:26:42;;;;;;;0.25;0.25;;;;;;;-8.37;100.00;97608.25;6139580;23;20032;-77
2024/01/09 07:29:28;;;;;;;0.30;0.30;;;;;;;-8.41;100.00;97606.75;6139758;23;20044;-76
2024/01/09 07:32:14;;;;;;;0.20;0.20;;;;;;;-8.43;100.00;97595.66;6138851;23;20405;-76
2024/01/09 07:35:00;;;;;;;0.20;0.20;;;;;;;-8.38;100.00;97598.78;6139454;23;20247;-77
2024/01/09 07:37:46;;;;;;;0.20;0.20;;;;;;;-8.36;100.00;97607.31;6138764;23;20049;-76
2024/01/09 07:40:32;;;;;;;0.20;0.20;;;;;;;-8.34;100.00;97588.97;6140045;23;20021;-76
2024/01/09 07:43:18;;;;;;;0.28;0.28;;;;;;;-8.41;100.00;97598.97;6139312;23;20029;-76
2024/01/09 07:46:04;;;;;;;0.20;0.20;;;;;;;-8.31;100.00;97606.97;6139673;23;20338;-78
2024/01/09 07:48:49;;;;;;;0.20;0.20;;;;;;;-8.23;98.82;97615.06;6139355;23;20024;-76
2024/01/09 07:51:35;;;;;;;0.20;0.20;;;;;;;-8.23;98.07;97620.28;6139007;23;20029;-77
2024/01/09 07:54:21;;;;;;;0.22;0.22;;;;;;;-8.24;97.93;97622.03;6139801;23;20032;-77
2024/01/09 07:57:07;;;;;;;0.20;0.20;;;;;;;-8.20;97.69;97623.47;6137487;23;20109;-77
2024/01/09 07:59:53;;;;;;;0.20;0.20;;;;;;;-8.09;96.74;97625.38;6139329;23;20021;-76
2024/01/09 08:02:39;;;;;;;0.20;0.20;;;;;;;-8.11;95.39;97619.41;6137515;23;20025;-76
2024/01/09 08:05:25;;;;;;;0.30;0.30;;;;;;;-8.07;94.83;97628.69;6139404;23;20045;-76
2024/01/09 08:08:11;;;;;;;0.30;0.30;;;;;;;-8.07;94.04;97625.25;6138076;23;20021;-77
2024/01/09 08:10:57;;;;;;;0.20;0.20;;;;;;;-7.97;91.53;97639.28;6139570;23;20138;-76
2024/01/09 08:13:43;;;;;;;0.20;0.20;;;;;;;-7.96;90.43;97643.53;6138916;23;20025;-77
2024/01/09 08:16:28;;;;;;;0.20;0.20;;;;;;;-7.89;88.82;97642.16;6138512;23;20079;-76
2024/01/09 08:19:14;;;;;;;0.20;0.20;;;;;;;-7.86;89.57;97640.22;6137145;23;20088;-77
2024/01/09 08:22:00;;;;;;;0.20;0.20;;;;;;;-7.78;87.17;97647.47;6138626;23;20101;-76
2024/01/09 08:24:46;;;;;;;0.20;0.20;;;;;;;-7.75;85.87;97649.84;6142324;23;20033;-77
2024/01/09 08:27:32;;;;;;;0.30;0.30;;;;;;;-7.67;87.76;97654.53;6141998;23;20032;-76
2024/01/09 08:30:18;;;;;;;0.20;0.20;;;;;;;-7.68;86.36;97653.69;6141665;23;20125;-76
2024/01/09 08:33:04;;;;;;;0.20;0.20;;;;;;;-7.59;84.57;97649.63;6141135;23;20025;-76
2024/01/09 08:35:50;;;;;;;0.20;0.20;;;;;;;-7.67;86.96;97642.34;6143033;23;20468;-76
2024/01/09 08:38:36;;;;;;;0.28;0.28;;;;;;;-7.60;85.87;97651.38;6141629;23;20120;-76
2024/01/09 08:41:22;;;;;;;0.20;0.20;;;;;;;-7.55;86.76;97655.44;6142003;23;20097;-77
2024/01/09 08:44:08;;;;;;;0.20;0.20;;;;;;;-7.51;83.92;97641.28;6141876;23;20112;-76
2024/01/09 08:46:54;;;;;;;0.20;0.20;;;;;;;-7.38;84.66;97649.91;6141965;23;20096;-77
2024/01/09 08:49:41;;;;;;;0.20;0.20;;;;;;;-7.31;85.31;97658.94;6142541;23;20857;-76
2024/01/09 08:52:27;;;;;;;0.20;0.20;;;;;;;-7.27;82.17;97656.94;6142409;23;20021;-76
2024/01/09 08:55:13;;;;;;;0.20;0.20;;;;;;;-7.25;78.62;97648.06;6142916;23;20508;-77
2024/01/09 08:57:59;;;;;;;0.30;0.30;;;;;;;-7.15;76.19;97656.06;6142561;23;20026;-78
2024/01/09 09:00:45;;;;;;;0.30;0.30;;;;;;;-7.02;74.69;97646.44;6098563;23;20029;-77
2024/01/09 09:03:31;;;;;;;0.20;0.20;;;;;;;-6.89;69.18;97656.78;6141354;23;20029;-78
2024/01/09 09:06:17;;;;;;;0.20;0.20;;;;;;;-6.75;68.09;97654.03;6141429;23;20785;-79
2024/01/09 09:09:04;;;;;;;0.20;0.20;;;;;;;-6.64;64.95;97648.03;6142516;23;20021;-78
2024/01/09 09:11:50;;;;;;;0.28;0.28;;;;;;;-6.52;64.39;97647.97;6142434;23;20026;-78
2024/01/09 09:14:36;;;;;;;0.30;0.30;;;;;;;-6.43;62.67;97635.19;6140505;23;20041;-78
2024/01/09 09:17:22;;;;;;;0.20;0.20;;;;;;;-6.24;62.59;97651.09;6141393;23;20354;-78
2024/01/09 09:20:08;;;;;;;0.20;0.20;;;;;;;-6.03;57.82;97643.44;6141604;23;20017;-78
2024/01/09 09:22:54;;;;;;;0.30;0.30;;;;;;;-5.76;56.97;97643.91;6140344;23;20029;-78
2024/01/09 09:25:40;;;;;;;0.30;0.30;;;;;;;-5.26;55.99;97653.97;6141602;23;20025;-78
2024/01/09 09:28:26;;;;;;;0.30;0.30;;;;;;;-4.60;52.33;97644.28;6140432;23;20028;-77
2024/01/09 09:31:12;;;;;;;0.40;0.40;;;;;;;-3.30;48.78;97652.47;6138536;23;20025;-78
2024/01/09 09:33:58;;;;;;;0.45;0.40;;;;;;;-1.73;44.32;97656.66;6140098;23;20084;-78
2024/01/09 09:36:44;;;;;;;0.60;0.40;;;;;;;-0.85;40.70;97639.56;6138957;23;20060;-78
2024/01/09 09:39:30;;;;;;;0.50;0.40;;;;;;;0.54;37.91;97638.84;6139478;23;20550;-78
2024/01/09 09:42:16;;;;;;;0.43;0.40;;;;;;;0.52;36.73;97629.44;6139857;23;20441;-78
2024/01/09 09:45:09;;;;;;;0.40;0.30;;;;;;;1.34;35.09;97625.28;6140117;23;20025;-78
2024/01/09 09:47:55;;;;;;;0.45;0.40;;;;;;;1.65;34.80;97631.59;6137749;23;20120;-79
2024/01/09 09:50:42;;;;;;;0.47;0.40;;;;;;;2.57;33.40;97636.63;6140694;23;20810;-79
2024/01/09 09:53:31;;;;;;;0.50;0.40;;;;;;;2.26;31.70;97634.72;6139868;23;20014;-78
2024/01/09 09:56:17;;;;;;;0.50;0.40;;;;;;;3.95;31.86;97622.63;6139794;23;20056;-80
2024/01/09 09:59:02;;;;;;;0.70;0.50;;;;;;;4.55;29.73;97627.06;6138043;23;20032;-79
2024/01/09 10:01:50;;;;;;;0.40;0.40;;;;;;;4.27;28.64;97618.88;6115977;23;20037;-78
2024/01/09 10:04:49;;;;;;;0.50;0.40;;;;;;;5.31;28.44;97617.03;6111801;23;20022;-78
2024/01/09 10:07:38;;;;;;;0.50;0.40;;;;;;;5.09;26.65;97621.44;6110510;23;20060;-78
2024/01/09 10:10:24;;;;;;;1.67;1.05;;;;;;;5.40;26.16;97615.91;6132209;23;20036;-79
2024/01/09 10:13:10;;;;;;;0.30;0.30;;;;;;;5.85;27.78;97611.25;6111096;23;20025;-79
2024/01/09 10:15:57;;;;;;;0.50;0.40;;;;;;;5.64;25.50;97608.59;6110717;23;20162;-78
2024/01/09 10:18:42;;;;;;;0.40;0.40;;;;;;;5.73;24.85;97615.41;6109343;23;20022;-79
2024/01/09 10:21:28;;;;;;;0.50;0.40;;;;;;;7.12;25.42;97614.56;6111398;23;20029;-78
2024/01/09 10:24:15;;;;;;;0.43;0.35;;;;;;;7.86;24.58;97613.78;6110452;23;20037;-79
2024/01/09 10:27:01;;;;;;;0.40;0.40;;;;;;;10.22;22.51;97593.72;6109202;23;20089;-79
2024/01/09 10:29:47;;;;;;;0.30;0.30;;;;;;;9.81;23.20;97601.41;6112980;23;20030;-78
2024/01/09 10:32:34;;;;;;;0.40;0.35;;;;;;;9.38;22.16;97599.38;6140312;23;20017;-79
2024/01/09 10:35:20;;;;;;;0.50;0.40;;;;;;;9.99;21.76;97598.81;6138762;23;20029;-78
2024/01/09 10:38:07;;;;;;;0.55;0.40;;;;;;;10.18;21.52;97605.03;6135416;23;20060;-78
2024/01/09 10:40:56;;;;;;;0.30;0.30;;;;;;;10.57;23.37;97604.72;6139861;23;20052;-78
2024/01/09 10:43:43;;;;;;;0.22;0.22;;;;;;;9.44;22.33;97601.19;6138232;23;20025;-78
2024/01/09 10:46:32;;;;;;;0.20;0.20;;;;;;;9.33;20.88;97592.00;6138701;23;20049;-78
2024/01/09 10:49:19;;;;;;;0.30;0.30;;;;;;;10.71;22.69;97596.56;6138444;23;20021;-78
2024/01/09 10:52:12;;;;;;;0.40;0.40;;;;;;;10.24;21.49;97591.63;6138755;23;20044;-78
2024/01/09 10:54:59;;;;;;;0.30;0.30;;;;;;;11.78;21.75;97595.03;6139376;23;20029;-79
2024/01/09 10:57:45;;;;;;;0.30;0.30;;;;;;;11.11;19.98;97589.72;6137683;23;20056;-78
2024/01/09 11:00:32;;;;;;;0.30;0.30;;;;;;;9.45;20.33;97597.50;6121392;23;20028;-79
2024/01/09 11:03:19;;;;;;;0.30;0.30;;;;;;;10.17;20.65;97601.53;6111949;23;20092;-78
2024/01/09 11:06:07;;;;;;;0.30;0.30;;;;;;;11.68;22.59;97592.09;6109905;23;20017;-78
2024/01/09 11:08:58;;;;;;;0.35;0.35;;;;;;;11.73;20.09;97584.19;6108920;23;20053;-78
2024/01/09 11:11:45;;;;;;;0.30;0.30;;;;;;;9.92;19.75;97572.09;6110050;23;20030;-78
2024/01/09 11:14:32;;;;;;;0.30;0.30;;;;;;;10.50;20.52;97585.22;6110598;23;20611;-78
2024/01/09 11:17:20;;;;;;;0.30;0.30;;;;;;;10.55;21.92;97576.53;6108089;23;20108;-78
2024/01/09 11:20:11;;;;;;;0.30;0.30;;;;;;;11.55;21.83;97581.56;6110024;23;20026;-79
2024/01/09 11:22:59;;;;;;;0.30;0.30;;;;;;;10.93;18.69;97564.81;6110932;23;20022;-78
2024/01/09 11:25:50;;;;;;;0.30;0.30;;;;;;;10.84;18.01;97578.50;6110534;23;20107;-77
2024/01/09 11:28:42;;;;;;;0.30;0.30;;;;;;;10.59;18.79;97572.41;6109202;23;20076;-78
2024/01/09 11:31:29;;;;;;;0.30;0.30;;;;;;;10.64;18.88;97563.69;6126155;23;20441;-79
2024/01/09 11:34:26;;;;;;;0.28;0.28;;;;;;;11.94;19.06;97566.78;6139787;23;20030;-78
2024/01/09 11:37:18;;;;;;;0.20;0.20;;;;;;;12.45;18.79;97574.22;6138934;23;20049;-79
2024/01/09 11:40:09;;;;;;;0.30;0.30;;;;;;;11.22;19.27;97576.63;6137642;23;20032;-79
2024/01/09 11:42:55;;;;;;;0.30;0.30;;;;;;;13.68;18.74;97555.25;6138928;23;20029;-78
2024/01/09 11:45:41;;;;;;;0.30;0.30;;;;;;;12.95;18.75;97546.00;6134975;23;20277;-78
2024/01/09 11:48:27;;;;;;;0.30;0.30;;;;;;;13.60;16.11;97543.81;6137639;23;20076;-78
2024/01/09 11:51:14;;;;;;;0.20;0.20;;;;;;;13.08;16.93;97543.88;6138024;23;20029;-79
2024/01/09 11:54:03;;;;;;;0.20;0.20;;;;;;;13.74;15.97;97547.03;6123355;23;20013;-79
2024/01/09 11:56:52;;;;;;;0.20;0.20;;;;;;;11.91;16.80;97546.63;6116792;23;20021;-78
2024/01/09 11:59:39;;;;;;;0.20;0.20;;;;;;;12.42;16.51;97541.63;6110080;23;20025;-80
2024/01/09 12:02:25;;;;;;;0.30;0.30;;;;;;;13.47;16.61;97541.44;6018609;23;20025;-79
2024/01/09 12:05:12;;;;;;;0.30;0.30;;;;;;;15.27;17.32;97528.56;5949426;23;20091;-80
2024/01/09 12:08:01;;;;;;;0.20;0.20;;;;;;;15.39;15.01;97524.91;5958286;23;20580;-79
2024/01/09 12:10:47;;;;;;;0.25;0.25;;;;;;;15.62;16.46;97519.25;5980774;23;20272;-79
2024/01/09 12:13:33;;;;;;;0.30;0.30;;;;;;;14.00;14.81;97525.94;6117549;23;20025;-79
2024/01/09 12:16:21;;;;;;;0.30;0.30;;;;;;;15.50;15.80;97526.66;6113248;23;20029;-80
2024/01/09 12:19:07;;;;;;;0.30;0.30;;;;;;;16.17;14.66;97508.13;6116340;23;20031;-78
2024/01/09 12:21:53;;;;;;;0.30;0.30;;;;;;;15.68;14.27;97515.53;6113891;23;20028;-79
2024/01/09 12:24:39;;;;;;;0.35;0.35;;;;;;;16.80;15.15;97521.78;6113303;23;20031;-78
2024/01/09 12:27:26;;;;;;;0.30;0.30;;;;;;;15.04;15.47;97526.13;6113952;23;20077;-79
2024/01/09 12:30:13;;;;;;;0.30;0.30;;;;;;;14.91;16.78;97524.63;6115341;23;20605;-79
2024/01/09 12:32:59;;;;;;;0.30;0.30;;;;;;;15.05;14.87;97522.38;6128651;23;20507;-78
2024/01/09 12:35:48;;;;;;;0.20;0.20;;;;;;;16.39;16.72;97518.00;6136959;23;20022;-78
2024/01/09 12:38:34;;;;;;;0.30;0.30;;;;;;;14.33;16.66;97512.47;6136300;23;20021;-78
2024/01/09 12:41:44;;;;;;;0.30;0.30;;;;;;;14.65;15.13;97501.91;5952373;23;20216;-78
2024/01/09 12:44:31;;;;;;;0.30;0.30;;;;;;;14.20;16.56;97508.25;6025659;23;20500;-79
2024/01/09 12:47:17;;;;;;;0.30;0.30;;;;;;;13.96;16.58;97511.34;6113538;23;20449;-78
2024/01/09 12:50:04;;;;;;;0.30;0.30;;;;;;;13.98;16.21;97503.84;6116965;23;20025;-78
2024/01/09 12:52:51;;;;;;;0.38;0.38;;;;;;;15.28;14.74;97497.03;6117842;23;20017;-78
2024/01/09 12:55:36;;;;;;;0.30;0.30;;;;;;;15.14;15.08;97499.28;6114119;23;20032;-77
2024/01/09 12:58:22;;;;;;;0.20;0.20;;;;;;;13.66;15.33;97499.81;6115131;23;20021;-78
2024/01/09 13:01:08;;;;;;;0.10;0.10;;;;;;;9.62;18.97;97506.94;5913341;23;20625;-78